sensor_id;sensor_type;location;lat;lon;timestamp;P1;durP1;ratioP1;P2;durP2;ratioP2
7031;SDS011;3557;48.880;8.328;2023-12-14T00:00:29;5.82;;;2.67;;
7031;SDS011;3557;48.880;8.328;2023-12-14T00:02:56;2.70;;;2.40;;
7031;SDS011;3557;48.880;8.328;2023-12-14T00:05:24;4.55;;;2.75;;
7031;SDS011;3557;48.880;8.328;2023-12-14T00:07:52;3.92;;;2.80;;
7031;SDS011;3557;48.880;8.328;2023-12-14T00:10:19;4.00;;;2.88;;
7031;SDS011;3557;48.880;8.328;2023-12-14T00:12:46;4.93;;;3.58;;
7031;SDS011;3557;48.880;8.328;2023-12-14T00:15:14;3.45;;;2.75;;
7031;SDS011;3557;48.880;8.328;2023-12-14T00:17:41;5.13;;;3.17;;
7031;SDS011;3557;48.880;8.328;2023-12-14T00:20:08;4.13;;;3.72;;
7031;SDS011;3557;48.880;8.328;2023-12-14T00:22:36;6.20;;;3.20;;
7031;SDS011;3557;48.880;8.328;2023-12-14T00:25:06;6.07;;;3.58;;
7031;SDS011;3557;48.880;8.328;2023-12-14T00:27:33;6.43;;;3.20;;
7031;SDS011;3557;48.880;8.328;2023-12-14T00:30:01;4.70;;;3.20;;
7031;SDS011;3557;48.880;8.328;2023-12-14T00:32:28;6.32;;;3.35;;
7031;SDS011;3557;48.880;8.328;2023-12-14T00:34:56;5.63;;;3.83;;
7031;SDS011;3557;48.880;8.328;2023-12-14T00:37:23;4.55;;;3.65;;
7031;SDS011;3557;48.880;8.328;2023-12-14T00:39:50;4.55;;;3.50;;
7031;SDS011;3557;48.880;8.328;2023-12-14T00:42:19;4.07;;;3.45;;
7031;SDS011;3557;48.880;8.328;2023-12-14T00:44:47;5.60;;;3.20;;
7031;SDS011;3557;48.880;8.328;2023-12-14T00:47:14;6.57;;;3.47;;
7031;SDS011;3557;48.880;8.328;2023-12-14T00:49:41;4.95;;;2.97;;
7031;SDS011;3557;48.880;8.328;2023-12-14T00:52:08;4.30;;;3.30;;
7031;SDS011;3557;48.880;8.328;2023-12-14T00:54:36;4.80;;;3.15;;
7031;SDS011;3557;48.880;8.328;2023-12-14T00:57:03;4.30;;;3.10;;
7031;SDS011;3557;48.880;8.328;2023-12-14T00:59:32;6.90;;;2.90;;
7031;SDS011;3557;48.880;8.328;2023-12-14T01:01:59;4.88;;;2.70;;
7031;SDS011;3557;48.880;8.328;2023-12-14T01:04:27;7.18;;;2.78;;
7031;SDS011;3557;48.880;8.328;2023-12-14T01:06:54;3.88;;;2.95;;
7031;SDS011;3557;48.880;8.328;2023-12-14T01:09:21;4.07;;;2.70;;
7031;SDS011;3557;48.880;8.328;2023-12-14T01:11:49;5.18;;;2.95;;
7031;SDS011;3557;48.880;8.328;2023-12-14T01:14:16;6.43;;;2.92;;
7031;SDS011;3557;48.880;8.328;2023-12-14T01:16:45;4.68;;;2.53;;
7031;SDS011;3557;48.880;8.328;2023-12-14T01:19:12;4.40;;;2.97;;
7031;SDS011;3557;48.880;8.328;2023-12-14T01:21:40;4.53;;;3.03;;
7031;SDS011;3557;48.880;8.328;2023-12-14T01:24:07;5.00;;;2.85;;
7031;SDS011;3557;48.880;8.328;2023-12-14T01:26:35;8.38;;;3.40;;
7031;SDS011;3557;48.880;8.328;2023-12-14T01:29:03;3.50;;;2.33;;
7031;SDS011;3557;48.880;8.328;2023-12-14T01:31:30;4.13;;;2.45;;
7031;SDS011;3557;48.880;8.328;2023-12-14T01:33:59;2.83;;;2.20;;
7031;SDS011;3557;48.880;8.328;2023-12-14T01:36:26;3.10;;;2.10;;
7031;SDS011;3557;48.880;8.328;2023-12-14T01:38:54;3.78;;;2.10;;
7031;SDS011;3557;48.880;8.328;2023-12-14T01:41:21;2.10;;;1.65;;
7031;SDS011;3557;48.880;8.328;2023-12-14T01:43:49;1.85;;;1.70;;
7031;SDS011;3557;48.880;8.328;2023-12-14T01:46:16;2.05;;;1.85;;
7031;SDS011;3557;48.880;8.328;2023-12-14T01:48:44;2.50;;;1.85;;
7031;SDS011;3557;48.880;8.328;2023-12-14T01:51:12;3.13;;;1.98;;
7031;SDS011;3557;48.880;8.328;2023-12-14T01:53:40;3.00;;;2.00;;
7031;SDS011;3557;48.880;8.328;2023-12-14T01:56:07;1.88;;;1.70;;
7031;SDS011;3557;48.880;8.328;2023-12-14T01:58:35;3.67;;;1.90;;
7031;SDS011;3557;48.880;8.328;2023-12-14T02:01:03;3.17;;;1.98;;
7031;SDS011;3557;48.880;8.328;2023-12-14T02:03:34;4.95;;;2.20;;
7031;SDS011;3557;48.880;8.328;2023-12-14T02:06:01;3.65;;;2.58;;
7031;SDS011;3557;48.880;8.328;2023-12-14T02:08:30;2.85;;;2.30;;
7031;SDS011;3557;48.880;8.328;2023-12-14T02:10:58;3.10;;;2.70;;
7031;SDS011;3557;48.880;8.328;2023-12-14T02:13:25;4.38;;;2.70;;
7031;SDS011;3557;48.880;8.328;2023-12-14T02:15:52;3.30;;;3.00;;
7031;SDS011;3557;48.880;8.328;2023-12-14T02:18:20;4.00;;;3.00;;
7031;SDS011;3557;48.880;8.328;2023-12-14T02:20:47;4.68;;;3.20;;
7031;SDS011;3557;48.880;8.328;2023-12-14T02:23:16;4.32;;;3.22;;
7031;SDS011;3557;48.880;8.328;2023-12-14T02:25:43;4.80;;;3.30;;
7031;SDS011;3557;48.880;8.328;2023-12-14T02:28:10;4.70;;;3.60;;
7031;SDS011;3557;48.880;8.328;2023-12-14T02:30:38;4.50;;;3.60;;
7031;SDS011;3557;48.880;8.328;2023-12-14T02:33:05;6.25;;;3.88;;
7031;SDS011;3557;48.880;8.328;2023-12-14T02:35:32;5.47;;;4.00;;
7031;SDS011;3557;48.880;8.328;2023-12-14T02:38:00;4.75;;;3.60;;
7031;SDS011;3557;48.880;8.328;2023-12-14T02:40:28;6.38;;;3.95;;
7031;SDS011;3557;48.880;8.328;2023-12-14T02:42:56;5.93;;;4.00;;
7031;SDS011;3557;48.880;8.328;2023-12-14T02:45:23;4.97;;;3.88;;
7031;SDS011;3557;48.880;8.328;2023-12-14T02:47:50;7.22;;;4.75;;
7031;SDS011;3557;48.880;8.328;2023-12-14T02:50:19;4.65;;;4.25;;
7031;SDS011;3557;48.880;8.328;2023-12-14T02:52:46;5.55;;;4.82;;
7031;SDS011;3557;48.880;8.328;2023-12-14T02:55:14;5.30;;;4.80;;
7031;SDS011;3557;48.880;8.328;2023-12-14T02:57:42;6.70;;;4.80;;
7031;SDS011;3557;48.880;8.328;2023-12-14T03:00:10;5.78;;;4.93;;
7031;SDS011;3557;48.880;8.328;2023-12-14T03:02:39;7.03;;;4.70;;
7031;SDS011;3557;48.880;8.328;2023-12-14T03:05:06;5.15;;;4.55;;
7031;SDS011;3557;48.880;8.328;2023-12-14T03:07:34;4.95;;;4.45;;
7031;SDS011;3557;48.880;8.328;2023-12-14T03:10:02;5.32;;;4.75;;
7031;SDS011;3557;48.880;8.328;2023-12-14T03:12:31;5.90;;;4.72;;
7031;SDS011;3557;48.880;8.328;2023-12-14T03:14:59;5.38;;;4.85;;
7031;SDS011;3557;48.880;8.328;2023-12-14T03:17:27;6.53;;;4.60;;
7031;SDS011;3557;48.880;8.328;2023-12-14T03:19:54;7.47;;;4.15;;
7031;SDS011;3557;48.880;8.328;2023-12-14T03:22:21;4.97;;;4.47;;
7031;SDS011;3557;48.880;8.328;2023-12-14T03:24:49;4.93;;;4.43;;
7031;SDS011;3557;48.880;8.328;2023-12-14T03:27:16;6.18;;;4.82;;
7031;SDS011;3557;48.880;8.328;2023-12-14T03:29:45;5.07;;;4.55;;
7031;SDS011;3557;48.880;8.328;2023-12-14T03:32:13;4.95;;;4.22;;
7031;SDS011;3557;48.880;8.328;2023-12-14T03:34:41;5.32;;;4.63;;
7031;SDS011;3557;48.880;8.328;2023-12-14T03:37:08;4.93;;;4.32;;
7031;SDS011;3557;48.880;8.328;2023-12-14T03:39:35;5.20;;;4.28;;
7031;SDS011;3557;48.880;8.328;2023-12-14T03:42:03;6.32;;;5.68;;
7031;SDS011;3557;48.880;8.328;2023-12-14T03:44:31;5.78;;;5.20;;
7031;SDS011;3557;48.880;8.328;2023-12-14T03:46:58;5.00;;;4.53;;
7031;SDS011;3557;48.880;8.328;2023-12-14T03:49:27;5.10;;;4.60;;
7031;SDS011;3557;48.880;8.328;2023-12-14T03:51:54;5.20;;;4.70;;
7031;SDS011;3557;48.880;8.328;2023-12-14T03:54:22;5.50;;;4.93;;
7031;SDS011;3557;48.880;8.328;2023-12-14T03:56:49;6.30;;;5.13;;
7031;SDS011;3557;48.880;8.328;2023-12-14T03:59:16;6.28;;;5.68;;
7031;SDS011;3557;48.880;8.328;2023-12-14T04:01:44;6.88;;;6.25;;
7031;SDS011;3557;48.880;8.328;2023-12-14T04:04:11;6.93;;;6.22;;
7031;SDS011;3557;48.880;8.328;2023-12-14T04:06:40;6.28;;;5.68;;
7031;SDS011;3557;48.880;8.328;2023-12-14T04:09:07;7.03;;;6.32;;
7031;SDS011;3557;48.880;8.328;2023-12-14T04:11:35;7.82;;;6.70;;
7031;SDS011;3557;48.880;8.328;2023-12-14T04:14:03;9.70;;;6.88;;
7031;SDS011;3557;48.880;8.328;2023-12-14T04:16:30;7.82;;;6.88;;
7031;SDS011;3557;48.880;8.328;2023-12-14T04:18:58;8.55;;;7.57;;
7031;SDS011;3557;48.880;8.328;2023-12-14T04:21:25;12.50;;;8.00;;
7031;SDS011;3557;48.880;8.328;2023-12-14T04:23:53;10.55;;;7.60;;
7031;SDS011;3557;48.880;8.328;2023-12-14T04:26:21;9.25;;;7.78;;
7031;SDS011;3557;48.880;8.328;2023-12-14T04:28:48;10.13;;;7.88;;
7031;SDS011;3557;48.880;8.328;2023-12-14T04:31:15;9.38;;;7.78;;
7031;SDS011;3557;48.880;8.328;2023-12-14T04:33:43;9.65;;;7.90;;
7031;SDS011;3557;48.880;8.328;2023-12-14T04:36:10;10.27;;;7.72;;
7031;SDS011;3557;48.880;8.328;2023-12-14T04:38:37;10.15;;;7.65;;
7031;SDS011;3557;48.880;8.328;2023-12-14T04:41:06;9.65;;;8.43;;
7031;SDS011;3557;48.880;8.328;2023-12-14T04:43:33;10.13;;;9.00;;
7031;SDS011;3557;48.880;8.328;2023-12-14T04:46:01;11.32;;;9.98;;
7031;SDS011;3557;48.880;8.328;2023-12-14T04:48:28;12.00;;;10.70;;
7031;SDS011;3557;48.880;8.328;2023-12-14T04:50:56;10.18;;;8.80;;
7031;SDS011;3557;48.880;8.328;2023-12-14T04:53:23;9.13;;;8.13;;
7031;SDS011;3557;48.880;8.328;2023-12-14T04:55:50;11.27;;;8.80;;
7031;SDS011;3557;48.880;8.328;2023-12-14T04:58:19;10.90;;;8.73;;
7031;SDS011;3557;48.880;8.328;2023-12-14T05:00:46;9.98;;;8.27;;
7031;SDS011;3557;48.880;8.328;2023-12-14T05:03:14;11.43;;;9.32;;
7031;SDS011;3557;48.880;8.328;2023-12-14T05:05:41;11.05;;;9.27;;
7031;SDS011;3557;48.880;8.328;2023-12-14T05:08:09;12.73;;;9.40;;
7031;SDS011;3557;48.880;8.328;2023-12-14T05:10:36;11.90;;;9.50;;
7031;SDS011;3557;48.880;8.328;2023-12-14T05:13:04;12.02;;;9.88;;
7031;SDS011;3557;48.880;8.328;2023-12-14T05:15:33;13.27;;;10.07;;
7031;SDS011;3557;48.880;8.328;2023-12-14T05:18:01;15.07;;;11.10;;
7031;SDS011;3557;48.880;8.328;2023-12-14T05:20:28;13.38;;;10.93;;
7031;SDS011;3557;48.880;8.328;2023-12-14T05:22:55;16.52;;;12.50;;
7031;SDS011;3557;48.880;8.328;2023-12-14T05:25:23;14.20;;;11.43;;
7031;SDS011;3557;48.880;8.328;2023-12-14T05:27:50;14.73;;;11.77;;
7031;SDS011;3557;48.880;8.328;2023-12-14T05:30:17;16.52;;;12.82;;
7031;SDS011;3557;48.880;8.328;2023-12-14T05:32:46;14.93;;;12.10;;
7031;SDS011;3557;48.880;8.328;2023-12-14T05:35:14;17.58;;;12.52;;
7031;SDS011;3557;48.880;8.328;2023-12-14T05:37:41;15.88;;;12.57;;
7031;SDS011;3557;48.880;8.328;2023-12-14T05:40:09;16.25;;;12.18;;
7031;SDS011;3557;48.880;8.328;2023-12-14T05:42:37;17.25;;;12.43;;
7031;SDS011;3557;48.880;8.328;2023-12-14T05:45:05;18.00;;;11.65;;
7031;SDS011;3557;48.880;8.328;2023-12-14T05:47:34;19.20;;;12.93;;
7031;SDS011;3557;48.880;8.328;2023-12-14T05:50:03;15.93;;;12.00;;
7031;SDS011;3557;48.880;8.328;2023-12-14T05:52:31;18.30;;;12.48;;
7031;SDS011;3557;48.880;8.328;2023-12-14T05:54:58;19.15;;;14.07;;
7031;SDS011;3557;48.880;8.328;2023-12-14T05:57:25;18.17;;;13.10;;
7031;SDS011;3557;48.880;8.328;2023-12-14T05:59:53;18.23;;;13.40;;
7031;SDS011;3557;48.880;8.328;2023-12-14T06:02:20;16.80;;;13.00;;
7031;SDS011;3557;48.880;8.328;2023-12-14T06:04:47;19.30;;;13.48;;
7031;SDS011;3557;48.880;8.328;2023-12-14T06:07:16;24.30;;;15.55;;
7031;SDS011;3557;48.880;8.328;2023-12-14T06:09:43;22.85;;;14.75;;
7031;SDS011;3557;48.880;8.328;2023-12-14T06:12:11;22.67;;;14.18;;
7031;SDS011;3557;48.880;8.328;2023-12-14T06:14:39;22.92;;;14.75;;
7031;SDS011;3557;48.880;8.328;2023-12-14T06:17:06;18.98;;;13.38;;
7031;SDS011;3557;48.880;8.328;2023-12-14T06:19:33;18.50;;;13.75;;
7031;SDS011;3557;48.880;8.328;2023-12-14T06:22:01;21.60;;;14.27;;
7031;SDS011;3557;48.880;8.328;2023-12-14T06:24:29;21.80;;;15.30;;
7031;SDS011;3557;48.880;8.328;2023-12-14T06:26:57;23.08;;;14.82;;
7031;SDS011;3557;48.880;8.328;2023-12-14T06:29:24;24.35;;;15.05;;
7031;SDS011;3557;48.880;8.328;2023-12-14T06:31:51;28.02;;;16.42;;
7031;SDS011;3557;48.880;8.328;2023-12-14T06:34:19;27.33;;;16.33;;
7031;SDS011;3557;48.880;8.328;2023-12-14T06:36:46;22.30;;;15.02;;
7031;SDS011;3557;48.880;8.328;2023-12-14T06:39:14;27.00;;;15.65;;
7031;SDS011;3557;48.880;8.328;2023-12-14T06:41:43;25.65;;;15.10;;
7031;SDS011;3557;48.880;8.328;2023-12-14T06:44:10;26.25;;;15.50;;
7031;SDS011;3557;48.880;8.328;2023-12-14T06:46:37;23.83;;;15.23;;
7031;SDS011;3557;48.880;8.328;2023-12-14T06:49:05;20.63;;;14.77;;
7031;SDS011;3557;48.880;8.328;2023-12-14T06:51:32;25.38;;;15.13;;
7031;SDS011;3557;48.880;8.328;2023-12-14T06:53:59;24.50;;;14.98;;
7031;SDS011;3557;48.880;8.328;2023-12-14T06:56:27;23.30;;;15.15;;
7031;SDS011;3557;48.880;8.328;2023-12-14T06:58:55;20.10;;;14.00;;
7031;SDS011;3557;48.880;8.328;2023-12-14T07:01:23;26.20;;;15.60;;
7031;SDS011;3557;48.880;8.328;2023-12-14T07:03:50;23.15;;;14.40;;
7031;SDS011;3557;48.880;8.328;2023-12-14T07:06:18;23.13;;;14.80;;
7031;SDS011;3557;48.880;8.328;2023-12-14T07:08:46;26.45;;;15.27;;
7031;SDS011;3557;48.880;8.328;2023-12-14T07:11:13;20.50;;;14.15;;
7031;SDS011;3557;48.880;8.328;2023-12-14T07:13:41;21.27;;;13.88;;
7031;SDS011;3557;48.880;8.328;2023-12-14T07:16:10;21.73;;;13.90;;
7031;SDS011;3557;48.880;8.328;2023-12-14T07:18:38;20.30;;;13.65;;
7031;SDS011;3557;48.880;8.328;2023-12-14T07:21:07;22.20;;;13.88;;
7031;SDS011;3557;48.880;8.328;2023-12-14T07:23:35;20.70;;;14.25;;
7031;SDS011;3557;48.880;8.328;2023-12-14T07:26:03;22.55;;;14.40;;
7031;SDS011;3557;48.880;8.328;2023-12-14T07:28:31;21.05;;;14.27;;
7031;SDS011;3557;48.880;8.328;2023-12-14T07:30:58;23.15;;;15.25;;
7031;SDS011;3557;48.880;8.328;2023-12-14T07:33:27;21.90;;;14.07;;
7031;SDS011;3557;48.880;8.328;2023-12-14T07:35:54;24.67;;;14.75;;
7031;SDS011;3557;48.880;8.328;2023-12-14T07:38:22;23.08;;;14.43;;
7031;SDS011;3557;48.880;8.328;2023-12-14T07:40:49;20.17;;;15.02;;
7031;SDS011;3557;48.880;8.328;2023-12-14T07:43:17;20.70;;;14.23;;
7031;SDS011;3557;48.880;8.328;2023-12-14T07:45:44;21.95;;;14.38;;
7031;SDS011;3557;48.880;8.328;2023-12-14T07:48:12;21.92;;;14.30;;
7031;SDS011;3557;48.880;8.328;2023-12-14T07:50:41;20.42;;;14.40;;
7031;SDS011;3557;48.880;8.328;2023-12-14T07:53:08;25.38;;;14.10;;
7031;SDS011;3557;48.880;8.328;2023-12-14T07:55:35;24.45;;;14.68;;
7031;SDS011;3557;48.880;8.328;2023-12-14T07:58:03;21.50;;;14.18;;
7031;SDS011;3557;48.880;8.328;2023-12-14T08:00:30;23.42;;;14.38;;
7031;SDS011;3557;48.880;8.328;2023-12-14T08:02:58;24.15;;;16.20;;
7031;SDS011;3557;48.880;8.328;2023-12-14T08:05:25;25.48;;;15.70;;
7031;SDS011;3557;48.880;8.328;2023-12-14T08:07:54;23.38;;;16.88;;
7031;SDS011;3557;48.880;8.328;2023-12-14T08:10:22;20.98;;;13.88;;
7031;SDS011;3557;48.880;8.328;2023-12-14T08:12:49;20.77;;;13.77;;
7031;SDS011;3557;48.880;8.328;2023-12-14T08:15:17;20.50;;;14.70;;
7031;SDS011;3557;48.880;8.328;2023-12-14T08:17:45;20.50;;;13.63;;
7031;SDS011;3557;48.880;8.328;2023-12-14T08:20:12;19.52;;;13.27;;
7031;SDS011;3557;48.880;8.328;2023-12-14T08:22:40;17.25;;;13.23;;
7031;SDS011;3557;48.880;8.328;2023-12-14T08:25:12;18.27;;;12.93;;
7031;SDS011;3557;48.880;8.328;2023-12-14T08:27:40;17.20;;;12.30;;
7031;SDS011;3557;48.880;8.328;2023-12-14T08:30:09;17.42;;;12.40;;
7031;SDS011;3557;48.880;8.328;2023-12-14T08:32:38;15.73;;;11.65;;
7031;SDS011;3557;48.880;8.328;2023-12-14T08:35:06;14.48;;;11.50;;
7031;SDS011;3557;48.880;8.328;2023-12-14T08:37:34;15.77;;;10.88;;
7031;SDS011;3557;48.880;8.328;2023-12-14T08:40:02;17.17;;;11.00;;
7031;SDS011;3557;48.880;8.328;2023-12-14T08:42:33;14.93;;;11.63;;
7031;SDS011;3557;48.880;8.328;2023-12-14T08:45:01;13.88;;;10.73;;
7031;SDS011;3557;48.880;8.328;2023-12-14T08:47:29;14.45;;;10.38;;
7031;SDS011;3557;48.880;8.328;2023-12-14T08:49:56;14.27;;;11.10;;
7031;SDS011;3557;48.880;8.328;2023-12-14T08:52:24;13.38;;;10.50;;
7031;SDS011;3557;48.880;8.328;2023-12-14T08:54:51;15.27;;;11.07;;
7031;SDS011;3557;48.880;8.328;2023-12-14T08:57:19;13.57;;;11.02;;
7031;SDS011;3557;48.880;8.328;2023-12-14T08:59:48;13.25;;;10.48;;
7031;SDS011;3557;48.880;8.328;2023-12-14T09:02:15;14.18;;;10.48;;
7031;SDS011;3557;48.880;8.328;2023-12-14T09:04:42;13.05;;;10.07;;
7031;SDS011;3557;48.880;8.328;2023-12-14T09:07:10;15.23;;;9.70;;
7031;SDS011;3557;48.880;8.328;2023-12-14T09:09:37;12.68;;;10.13;;
7031;SDS011;3557;48.880;8.328;2023-12-14T09:12:04;12.20;;;9.55;;
7031;SDS011;3557;48.880;8.328;2023-12-14T09:14:32;12.85;;;9.98;;
7031;SDS011;3557;48.880;8.328;2023-12-14T09:17:01;11.82;;;9.20;;
7031;SDS011;3557;48.880;8.328;2023-12-14T09:19:29;14.77;;;9.95;;
7031;SDS011;3557;48.880;8.328;2023-12-14T09:21:56;11.65;;;9.98;;
7031;SDS011;3557;48.880;8.328;2023-12-14T09:24:24;11.20;;;8.88;;
7031;SDS011;3557;48.880;8.328;2023-12-14T09:26:52;11.25;;;8.98;;
7031;SDS011;3557;48.880;8.328;2023-12-14T09:29:19;11.32;;;9.77;;
7031;SDS011;3557;48.880;8.328;2023-12-14T09:31:46;12.45;;;9.13;;
7031;SDS011;3557;48.880;8.328;2023-12-14T09:34:16;14.70;;;9.35;;
7031;SDS011;3557;48.880;8.328;2023-12-14T09:36:44;11.55;;;8.88;;
7031;SDS011;3557;48.880;8.328;2023-12-14T09:39:11;8.95;;;8.00;;
7031;SDS011;3557;48.880;8.328;2023-12-14T09:41:40;9.48;;;7.85;;
7031;SDS011;3557;48.880;8.328;2023-12-14T09:44:08;8.70;;;7.40;;
7031;SDS011;3557;48.880;8.328;2023-12-14T09:46:36;8.70;;;7.68;;
7031;SDS011;3557;48.880;8.328;2023-12-14T09:49:06;9.77;;;7.93;;
7031;SDS011;3557;48.880;8.328;2023-12-14T09:51:36;8.95;;;7.70;;
7031;SDS011;3557;48.880;8.328;2023-12-14T09:54:06;9.05;;;7.70;;
7031;SDS011;3557;48.880;8.328;2023-12-14T09:56:33;9.68;;;7.85;;
7031;SDS011;3557;48.880;8.328;2023-12-14T09:59:01;10.02;;;7.50;;
7031;SDS011;3557;48.880;8.328;2023-12-14T10:01:30;10.65;;;8.45;;
7031;SDS011;3557;48.880;8.328;2023-12-14T10:04:09;9.07;;;7.57;;
7031;SDS011;3557;48.880;8.328;2023-12-14T10:06:40;9.90;;;8.20;;
7031;SDS011;3557;48.880;8.328;2023-12-14T10:09:10;9.75;;;8.23;;
7031;SDS011;3557;48.880;8.328;2023-12-14T10:11:41;9.45;;;8.30;;
7031;SDS011;3557;48.880;8.328;2023-12-14T10:14:18;8.95;;;7.88;;
7031;SDS011;3557;48.880;8.328;2023-12-14T10:16:46;10.15;;;8.25;;
7031;SDS011;3557;48.880;8.328;2023-12-14T10:19:16;9.02;;;7.85;;
7031;SDS011;3557;48.880;8.328;2023-12-14T10:21:46;9.30;;;8.18;;
7031;SDS011;3557;48.880;8.328;2023-12-14T10:24:14;8.52;;;7.45;;
7031;SDS011;3557;48.880;8.328;2023-12-14T10:26:44;8.90;;;7.97;;
7031;SDS011;3557;48.880;8.328;2023-12-14T10:29:12;10.63;;;8.07;;
7031;SDS011;3557;48.880;8.328;2023-12-14T10:31:39;9.93;;;7.93;;
7031;SDS011;3557;48.880;8.328;2023-12-14T10:34:07;10.10;;;8.07;;
7031;SDS011;3557;48.880;8.328;2023-12-14T10:36:37;8.75;;;7.85;;
7031;SDS011;3557;48.880;8.328;2023-12-14T10:39:06;9.43;;;7.93;;
7031;SDS011;3557;48.880;8.328;2023-12-14T10:41:35;8.50;;;7.70;;
7031;SDS011;3557;48.880;8.328;2023-12-14T10:44:03;8.32;;;7.10;;
7031;SDS011;3557;48.880;8.328;2023-12-14T10:46:31;8.50;;;7.45;;
7031;SDS011;3557;48.880;8.328;2023-12-14T10:48:59;8.23;;;7.28;;
7031;SDS011;3557;48.880;8.328;2023-12-14T10:51:28;8.57;;;7.55;;
7031;SDS011;3557;48.880;8.328;2023-12-14T10:53:56;9.43;;;7.47;;
7031;SDS011;3557;48.880;8.328;2023-12-14T10:56:25;11.90;;;8.07;;
7031;SDS011;3557;48.880;8.328;2023-12-14T10:58:53;10.43;;;8.57;;
7031;SDS011;3557;48.880;8.328;2023-12-14T11:01:23;9.68;;;8.32;;
7031;SDS011;3557;48.880;8.328;2023-12-14T11:03:53;9.57;;;8.15;;
7031;SDS011;3557;48.880;8.328;2023-12-14T11:06:31;11.88;;;8.63;;
7031;SDS011;3557;48.880;8.328;2023-12-14T11:09:04;11.05;;;8.30;;
7031;SDS011;3557;48.880;8.328;2023-12-14T11:11:55;10.75;;;8.88;;
7031;SDS011;3557;48.880;8.328;2023-12-14T11:14:25;12.27;;;8.38;;
7031;SDS011;3557;48.880;8.328;2023-12-14T11:16:54;11.40;;;8.05;;
7031;SDS011;3557;48.880;8.328;2023-12-14T11:19:29;9.68;;;8.20;;
7031;SDS011;3557;48.880;8.328;2023-12-14T11:22:10;10.88;;;7.97;;
7031;SDS011;3557;48.880;8.328;2023-12-14T11:24:45;12.63;;;10.25;;
7031;SDS011;3557;48.880;8.328;2023-12-14T11:27:26;9.82;;;8.27;;
7031;SDS011;3557;48.880;8.328;2023-12-14T11:29:56;13.90;;;9.90;;
7031;SDS011;3557;48.880;8.328;2023-12-14T11:32:24;11.18;;;8.50;;
7031;SDS011;3557;48.880;8.328;2023-12-14T11:34:52;9.75;;;8.25;;
7031;SDS011;3557;48.880;8.328;2023-12-14T11:37:21;10.85;;;8.63;;
7031;SDS011;3557;48.880;8.328;2023-12-14T11:39:49;10.27;;;8.38;;
7031;SDS011;3557;48.880;8.328;2023-12-14T11:42:18;10.48;;;8.48;;
7031;SDS011;3557;48.880;8.328;2023-12-14T11:44:47;9.75;;;8.60;;
7031;SDS011;3557;48.880;8.328;2023-12-14T11:47:15;11.43;;;8.88;;
7031;SDS011;3557;48.880;8.328;2023-12-14T11:49:42;10.65;;;9.45;;
7031;SDS011;3557;48.880;8.328;2023-12-14T11:52:09;10.98;;;9.25;;
7031;SDS011;3557;48.880;8.328;2023-12-14T11:54:37;9.57;;;8.30;;
7031;SDS011;3557;48.880;8.328;2023-12-14T11:57:05;11.18;;;9.07;;
7031;SDS011;3557;48.880;8.328;2023-12-14T11:59:34;10.82;;;8.70;;
7031;SDS011;3557;48.880;8.328;2023-12-14T12:02:04;9.57;;;8.57;;
7031;SDS011;3557;48.880;8.328;2023-12-14T12:04:31;9.40;;;8.10;;
7031;SDS011;3557;48.880;8.328;2023-12-14T12:06:59;11.32;;;8.38;;
7031;SDS011;3557;48.880;8.328;2023-12-14T12:09:37;11.68;;;8.15;;
7031;SDS011;3557;48.880;8.328;2023-12-14T12:12:06;9.88;;;7.88;;
7031;SDS011;3557;48.880;8.328;2023-12-14T12:14:35;10.05;;;8.23;;
7031;SDS011;3557;48.880;8.328;2023-12-14T12:17:04;11.52;;;7.95;;
7031;SDS011;3557;48.880;8.328;2023-12-14T12:19:32;8.80;;;7.85;;
7031;SDS011;3557;48.880;8.328;2023-12-14T12:22:01;11.07;;;7.38;;
7031;SDS011;3557;48.880;8.328;2023-12-14T12:24:28;7.90;;;7.07;;
7031;SDS011;3557;48.880;8.328;2023-12-14T12:26:56;8.52;;;6.97;;
7031;SDS011;3557;48.880;8.328;2023-12-14T12:29:23;7.55;;;6.72;;
7031;SDS011;3557;48.880;8.328;2023-12-14T12:31:51;8.43;;;6.57;;
7031;SDS011;3557;48.880;8.328;2023-12-14T12:34:20;11.93;;;7.10;;
7031;SDS011;3557;48.880;8.328;2023-12-14T12:36:47;9.10;;;6.70;;
7031;SDS011;3557;48.880;8.328;2023-12-14T12:39:14;13.57;;;6.53;;
7031;SDS011;3557;48.880;8.328;2023-12-14T12:41:42;8.00;;;7.05;;
7031;SDS011;3557;48.880;8.328;2023-12-14T12:44:09;8.13;;;6.30;;
7031;SDS011;3557;48.880;8.328;2023-12-14T12:46:37;7.90;;;6.20;;
7031;SDS011;3557;48.880;8.328;2023-12-14T12:49:05;13.60;;;7.15;;
7031;SDS011;3557;48.880;8.328;2023-12-14T12:51:33;11.25;;;7.35;;
7031;SDS011;3557;48.880;8.328;2023-12-14T12:54:01;9.48;;;6.15;;
7031;SDS011;3557;48.880;8.328;2023-12-14T12:56:29;9.20;;;6.28;;
7031;SDS011;3557;48.880;8.328;2023-12-14T12:58:56;7.13;;;6.05;;
7031;SDS011;3557;48.880;8.328;2023-12-14T13:01:24;7.40;;;6.03;;
7031;SDS011;3557;48.880;8.328;2023-12-14T13:03:53;7.25;;;6.47;;
7031;SDS011;3557;48.880;8.328;2023-12-14T13:06:22;9.43;;;6.90;;
7031;SDS011;3557;48.880;8.328;2023-12-14T13:08:52;12.10;;;6.97;;
7031;SDS011;3557;48.880;8.328;2023-12-14T13:11:20;9.02;;;7.03;;
7031;SDS011;3557;48.880;8.328;2023-12-14T13:13:47;8.30;;;6.75;;
7031;SDS011;3557;48.880;8.328;2023-12-14T13:16:15;10.90;;;7.15;;
7031;SDS011;3557;48.880;8.328;2023-12-14T13:18:42;8.50;;;7.65;;
7031;SDS011;3557;48.880;8.328;2023-12-14T13:21:11;11.05;;;7.85;;
7031;SDS011;3557;48.880;8.328;2023-12-14T13:23:39;11.57;;;8.40;;
7031;SDS011;3557;48.880;8.328;2023-12-14T13:26:08;9.07;;;7.60;;
7031;SDS011;3557;48.880;8.328;2023-12-14T13:28:35;8.45;;;7.13;;
7031;SDS011;3557;48.880;8.328;2023-12-14T13:31:03;11.07;;;7.82;;
7031;SDS011;3557;48.880;8.328;2023-12-14T13:33:31;9.75;;;6.95;;
7031;SDS011;3557;48.880;8.328;2023-12-14T13:35:59;7.97;;;6.32;;
7031;SDS011;3557;48.880;8.328;2023-12-14T13:38:26;8.63;;;6.22;;
7031;SDS011;3557;48.880;8.328;2023-12-14T13:40:53;8.93;;;6.60;;
7031;SDS011;3557;48.880;8.328;2023-12-14T13:43:22;7.68;;;6.80;;
7031;SDS011;3557;48.880;8.328;2023-12-14T13:45:50;8.23;;;6.05;;
7031;SDS011;3557;48.880;8.328;2023-12-14T13:48:22;6.82;;;5.90;;
7031;SDS011;3557;48.880;8.328;2023-12-14T13:50:50;7.88;;;6.10;;
7031;SDS011;3557;48.880;8.328;2023-12-14T13:53:17;7.38;;;5.93;;
7031;SDS011;3557;48.880;8.328;2023-12-14T13:55:45;11.27;;;6.05;;
7031;SDS011;3557;48.880;8.328;2023-12-14T13:58:14;7.10;;;6.00;;
7031;SDS011;3557;48.880;8.328;2023-12-14T14:00:43;7.93;;;5.95;;
7031;SDS011;3557;48.880;8.328;2023-12-14T14:03:11;7.70;;;5.82;;
7031;SDS011;3557;48.880;8.328;2023-12-14T14:05:39;7.63;;;5.88;;
7031;SDS011;3557;48.880;8.328;2023-12-14T14:08:09;8.90;;;5.78;;
7031;SDS011;3557;48.880;8.328;2023-12-14T14:10:36;10.70;;;6.15;;
7031;SDS011;3557;48.880;8.328;2023-12-14T14:13:04;7.00;;;5.80;;
7031;SDS011;3557;48.880;8.328;2023-12-14T14:15:31;6.78;;;5.90;;
7031;SDS011;3557;48.880;8.328;2023-12-14T14:18:00;7.55;;;6.30;;
7031;SDS011;3557;48.880;8.328;2023-12-14T14:20:27;8.57;;;6.70;;
7031;SDS011;3557;48.880;8.328;2023-12-14T14:22:55;7.43;;;5.80;;
7031;SDS011;3557;48.880;8.328;2023-12-14T14:25:24;7.97;;;5.30;;
7031;SDS011;3557;48.880;8.328;2023-12-14T14:27:51;7.82;;;5.53;;
7031;SDS011;3557;48.880;8.328;2023-12-14T14:30:19;7.47;;;5.57;;
7031;SDS011;3557;48.880;8.328;2023-12-14T14:32:46;7.53;;;5.45;;
7031;SDS011;3557;48.880;8.328;2023-12-14T14:35:15;7.03;;;5.53;;
7031;SDS011;3557;48.880;8.328;2023-12-14T14:37:42;10.40;;;5.90;;
7031;SDS011;3557;48.880;8.328;2023-12-14T14:40:11;7.97;;;6.53;;
7031;SDS011;3557;48.880;8.328;2023-12-14T14:42:39;8.07;;;6.25;;
7031;SDS011;3557;48.880;8.328;2023-12-14T14:45:07;15.07;;;7.18;;
7031;SDS011;3557;48.880;8.328;2023-12-14T14:47:35;10.25;;;7.25;;
7031;SDS011;3557;48.880;8.328;2023-12-14T14:50:03;10.20;;;8.05;;
7031;SDS011;3557;48.880;8.328;2023-12-14T14:52:33;11.32;;;7.45;;
7031;SDS011;3557;48.880;8.328;2023-12-14T14:55:01;8.30;;;6.82;;
7031;SDS011;3557;48.880;8.328;2023-12-14T14:57:29;7.28;;;6.28;;
7031;SDS011;3557;48.880;8.328;2023-12-14T14:59:57;7.47;;;6.07;;
7031;SDS011;3557;48.880;8.328;2023-12-14T15:02:25;9.52;;;6.70;;
7031;SDS011;3557;48.880;8.328;2023-12-14T15:04:53;10.30;;;7.10;;
7031;SDS011;3557;48.880;8.328;2023-12-14T15:07:21;8.38;;;6.53;;
7031;SDS011;3557;48.880;8.328;2023-12-14T15:09:55;10.70;;;7.15;;